Belfair, Washington
Current Conditions -  °F | °C
As of 5:15 PM on Monday 20 Oct 2014 (Local Time) from KPWT Reporting Station
Clear Clear  
Wind Chill: 59°   Ceiling: Unl
Heat Index: 59°   Visibility: 10mi
Dew Point: 54°   Wind: 7mph
Humidity: 82%   Direction: 150°SSE
Pressure: 29.76"   Gusts: NA
Location:  47.45°N, 122.83°W
Report Text: KPWT 210015Z AUTO 15006KT 10SM CLR 15/12 A2976 RMK AO1
Loading
Personal Weather Stations






























Interactive Weather Map
Tropical Storm Tracking
New forecast layout! Learn more

10-Day Weather Forecast

Advertisements
Track Severe Weather on mobile